sensor_id;sensor_type;location;lat;lon;timestamp;temperature;humidity
2763;DHT22;1389;51.490;7.338;2022-11-20T00:01:04;-1.00;92.80
2763;DHT22;1389;51.490;7.338;2022-11-20T00:03:30;-1.00;93.00
2763;DHT22;1389;51.490;7.338;2022-11-20T00:06:05;-1.00;93.10
2763;DHT22;1389;51.490;7.338;2022-11-20T00:08:31;-1.00;93.10
2763;DHT22;1389;51.490;7.338;2022-11-20T00:11:01;-1.00;93.00
2763;DHT22;1389;51.490;7.338;2022-11-20T00:13:28;-0.90;93.20
2763;DHT22;1389;51.490;7.338;2022-11-20T00:15:58;-0.90;93.40
2763;DHT22;1389;51.490;7.338;2022-11-20T00:18:25;-0.90;93.20
2763;DHT22;1389;51.490;7.338;2022-11-20T00:20:51;-0.80;93.00
2763;DHT22;1389;51.490;7.338;2022-11-20T00:23:17;-0.80;93.10
2763;DHT22;1389;51.490;7.338;2022-11-20T00:25:43;-0.80;93.20
2763;DHT22;1389;51.490;7.338;2022-11-20T00:28:09;-0.70;93.20
2763;DHT22;1389;51.490;7.338;2022-11-20T00:30:35;-0.60;93.40
2763;DHT22;1389;51.490;7.338;2022-11-20T00:33:01;-0.50;93.40
2763;DHT22;1389;51.490;7.338;2022-11-20T00:35:27;-0.50;93.30
2763;DHT22;1389;51.490;7.338;2022-11-20T00:37:53;-0.50;93.30
2763;DHT22;1389;51.490;7.338;2022-11-20T00:40:19;-0.50;93.00
2763;DHT22;1389;51.490;7.338;2022-11-20T00:42:45;-0.50;93.00
2763;DHT22;1389;51.490;7.338;2022-11-20T00:45:11;-0.40;93.10
2763;DHT22;1389;51.490;7.338;2022-11-20T00:47:38;-0.30;92.90
2763;DHT22;1389;51.490;7.338;2022-11-20T00:50:04;-0.30;92.70
2763;DHT22;1389;51.490;7.338;2022-11-20T00:52:30;-0.30;92.70
2763;DHT22;1389;51.490;7.338;2022-11-20T00:54:56;-0.30;93.30
2763;DHT22;1389;51.490;7.338;2022-11-20T00:57:22;-0.30;93.30
2763;DHT22;1389;51.490;7.338;2022-11-20T00:59:48;-0.20;93.40
2763;DHT22;1389;51.490;7.338;2022-11-20T01:02:14;-0.20;93.10
2763;DHT22;1389;51.490;7.338;2022-11-20T01:04:42;-0.20;93.30
2763;DHT22;1389;51.490;7.338;2022-11-20T01:07:08;-0.20;93.60
2763;DHT22;1389;51.490;7.338;2022-11-20T01:09:34;-0.10;93.50
2763;DHT22;1389;51.490;7.338;2022-11-20T01:12:00;-0.10;93.20
2763;DHT22;1389;51.490;7.338;2022-11-20T01:14:26;-0.10;93.40
2763;DHT22;1389;51.490;7.338;2022-11-20T01:16:52;0.00;93.60
2763;DHT22;1389;51.490;7.338;2022-11-20T01:19:21;0.00;93.30
2763;DHT22;1389;51.490;7.338;2022-11-20T01:21:50;0.00;93.30
2763;DHT22;1389;51.490;7.338;2022-11-20T01:24:18;-0.10;93.20
2763;DHT22;1389;51.490;7.338;2022-11-20T01:26:46;0.00;94.00
2763;DHT22;1389;51.490;7.338;2022-11-20T01:29:19;0.00;94.00
2763;DHT22;1389;51.490;7.338;2022-11-20T01:31:45;0.00;94.30
2763;DHT22;1389;51.490;7.338;2022-11-20T01:34:13;0.10;94.40
2763;DHT22;1389;51.490;7.338;2022-11-20T01:36:41;0.10;94.30
2763;DHT22;1389;51.490;7.338;2022-11-20T01:39:14;0.10;94.00
2763;DHT22;1389;51.490;7.338;2022-11-20T01:41:41;0.10;94.20
2763;DHT22;1389;51.490;7.338;2022-11-20T01:44:48;0.20;93.60
2763;DHT22;1389;51.490;7.338;2022-11-20T01:47:20;0.00;93.10
2763;DHT22;1389;51.490;7.338;2022-11-20T01:49:52;0.00;94.00
2763;DHT22;1389;51.490;7.338;2022-11-20T01:52:27;0.00;94.10
2763;DHT22;1389;51.490;7.338;2022-11-20T01:55:07;0.00;94.10
2763;DHT22;1389;51.490;7.338;2022-11-20T01:57:35;0.10;93.90
2763;DHT22;1389;51.490;7.338;2022-11-20T02:00:10;0.00;93.70
2763;DHT22;1389;51.490;7.338;2022-11-20T02:02:39;0.00;93.70
2763;DHT22;1389;51.490;7.338;2022-11-20T02:05:22;0.00;94.10
2763;DHT22;1389;51.490;7.338;2022-11-20T02:07:49;0.00;94.40
2763;DHT22;1389;51.490;7.338;2022-11-20T02:10:16;-0.10;94.50
2763;DHT22;1389;51.490;7.338;2022-11-20T02:12:42;-0.10;94.10
2763;DHT22;1389;51.490;7.338;2022-11-20T02:15:27;-0.10;94.10
2763;DHT22;1389;51.490;7.338;2022-11-20T02:17:53;-0.10;94.50
2763;DHT22;1389;51.490;7.338;2022-11-20T02:20:20;0.00;94.60
2763;DHT22;1389;51.490;7.338;2022-11-20T02:23:13;0.00;94.40
2763;DHT22;1389;51.490;7.338;2022-11-20T02:25:42;0.00;94.60
2763;DHT22;1389;51.490;7.338;2022-11-20T02:28:09;0.10;94.70
2763;DHT22;1389;51.490;7.338;2022-11-20T02:30:36;0.10;94.60
2763;DHT22;1389;51.490;7.338;2022-11-20T02:33:02;0.10;94.70
2763;DHT22;1389;51.490;7.338;2022-11-20T02:37:56;0.20;94.90
2763;DHT22;1389;51.490;7.338;2022-11-20T02:40:22;0.20;95.30
2763;DHT22;1389;51.490;7.338;2022-11-20T02:42:55;0.30;95.00
2763;DHT22;1389;51.490;7.338;2022-11-20T02:45:22;0.40;94.40
2763;DHT22;1389;51.490;7.338;2022-11-20T02:47:49;0.30;94.40
2763;DHT22;1389;51.490;7.338;2022-11-20T02:50:16;0.30;94.70
2763;DHT22;1389;51.490;7.338;2022-11-20T02:52:42;0.30;94.70
2763;DHT22;1389;51.490;7.338;2022-11-20T02:55:09;0.40;94.70
2763;DHT22;1389;51.490;7.338;2022-11-20T02:57:35;0.30;94.90
2763;DHT22;1389;51.490;7.338;2022-11-20T03:00:01;0.40;95.10
2763;DHT22;1389;51.490;7.338;2022-11-20T03:02:31;0.40;95.00
2763;DHT22;1389;51.490;7.338;2022-11-20T03:04:57;0.40;95.10
2763;DHT22;1389;51.490;7.338;2022-11-20T03:07:23;0.40;95.30
2763;DHT22;1389;51.490;7.338;2022-11-20T03:09:49;0.40;95.40
2763;DHT22;1389;51.490;7.338;2022-11-20T03:12:15;0.50;95.40
2763;DHT22;1389;51.490;7.338;2022-11-20T03:14:42;0.50;95.30
2763;DHT22;1389;51.490;7.338;2022-11-20T03:17:08;0.50;95.20
2763;DHT22;1389;51.490;7.338;2022-11-20T03:19:34;0.50;95.30
2763;DHT22;1389;51.490;7.338;2022-11-20T03:22:00;0.50;95.40
2763;DHT22;1389;51.490;7.338;2022-11-20T03:24:26;0.60;95.60
2763;DHT22;1389;51.490;7.338;2022-11-20T03:26:52;0.60;95.70
2763;DHT22;1389;51.490;7.338;2022-11-20T03:29:18;0.60;95.80
2763;DHT22;1389;51.490;7.338;2022-11-20T03:31:45;0.60;95.80
2763;DHT22;1389;51.490;7.338;2022-11-20T03:34:11;0.70;95.80
2763;DHT22;1389;51.490;7.338;2022-11-20T03:36:39;0.70;95.70
2763;DHT22;1389;51.490;7.338;2022-11-20T03:39:05;0.70;95.40
2763;DHT22;1389;51.490;7.338;2022-11-20T03:41:36;0.70;95.60
2763;DHT22;1389;51.490;7.338;2022-11-20T03:44:05;0.70;95.30
2763;DHT22;1389;51.490;7.338;2022-11-20T03:46:31;0.70;95.40
2763;DHT22;1389;51.490;7.338;2022-11-20T03:48:58;0.70;95.50
2763;DHT22;1389;51.490;7.338;2022-11-20T03:51:26;0.70;95.90
2763;DHT22;1389;51.490;7.338;2022-11-20T03:53:55;0.70;96.00
2763;DHT22;1389;51.490;7.338;2022-11-20T03:56:27;0.70;96.00
2763;DHT22;1389;51.490;7.338;2022-11-20T03:58:54;0.80;95.50
2763;DHT22;1389;51.490;7.338;2022-11-20T04:01:25;0.80;95.90
2763;DHT22;1389;51.490;7.338;2022-11-20T04:03:53;0.80;96.30
2763;DHT22;1389;51.490;7.338;2022-11-20T04:06:22;0.80;96.40
2763;DHT22;1389;51.490;7.338;2022-11-20T04:08:49;0.90;96.40
2763;DHT22;1389;51.490;7.338;2022-11-20T04:11:21;0.90;96.40
2763;DHT22;1389;51.490;7.338;2022-11-20T04:13:50;0.90;96.40
2763;DHT22;1389;51.490;7.338;2022-11-20T04:16:17;0.90;96.40
2763;DHT22;1389;51.490;7.338;2022-11-20T04:18:43;0.90;96.20
2763;DHT22;1389;51.490;7.338;2022-11-20T04:21:10;1.00;96.30
2763;DHT22;1389;51.490;7.338;2022-11-20T04:23:36;0.90;96.00
2763;DHT22;1389;51.490;7.338;2022-11-20T04:26:07;0.90;96.50
2763;DHT22;1389;51.490;7.338;2022-11-20T04:28:34;1.00;96.20
2763;DHT22;1389;51.490;7.338;2022-11-20T04:33:30;1.00;96.10
2763;DHT22;1389;51.490;7.338;2022-11-20T04:36:06;1.00;96.30
2763;DHT22;1389;51.490;7.338;2022-11-20T04:38:33;1.00;96.70
2763;DHT22;1389;51.490;7.338;2022-11-20T04:41:01;1.10;96.40
2763;DHT22;1389;51.490;7.338;2022-11-20T04:43:28;1.00;96.50
2763;DHT22;1389;51.490;7.338;2022-11-20T04:45:55;1.10;96.90
2763;DHT22;1389;51.490;7.338;2022-11-20T04:48:22;1.10;97.00
2763;DHT22;1389;51.490;7.338;2022-11-20T04:50:49;1.10;97.00
2763;DHT22;1389;51.490;7.338;2022-11-20T04:53:15;1.10;97.00
2763;DHT22;1389;51.490;7.338;2022-11-20T04:55:41;1.10;96.70
2763;DHT22;1389;51.490;7.338;2022-11-20T04:58:07;1.10;96.90
2763;DHT22;1389;51.490;7.338;2022-11-20T05:00:33;1.10;96.70
2763;DHT22;1389;51.490;7.338;2022-11-20T05:02:59;1.10;96.70
2763;DHT22;1389;51.490;7.338;2022-11-20T05:05:25;1.10;96.90
2763;DHT22;1389;51.490;7.338;2022-11-20T05:07:51;1.00;96.70
2763;DHT22;1389;51.490;7.338;2022-11-20T05:10:17;1.00;96.90
2763;DHT22;1389;51.490;7.338;2022-11-20T05:12:43;1.10;97.10
2763;DHT22;1389;51.490;7.338;2022-11-20T05:15:10;1.10;97.10
2763;DHT22;1389;51.490;7.338;2022-11-20T05:17:36;1.10;97.30
2763;DHT22;1389;51.490;7.338;2022-11-20T05:20:02;1.20;97.30
2763;DHT22;1389;51.490;7.338;2022-11-20T05:22:28;1.20;97.40
2763;DHT22;1389;51.490;7.338;2022-11-20T05:24:54;1.20;97.10
2763;DHT22;1389;51.490;7.338;2022-11-20T05:27:20;1.20;97.20
2763;DHT22;1389;51.490;7.338;2022-11-20T05:29:46;1.20;97.40
2763;DHT22;1389;51.490;7.338;2022-11-20T05:32:12;1.20;97.40
2763;DHT22;1389;51.490;7.338;2022-11-20T05:34:38;1.20;97.10
2763;DHT22;1389;51.490;7.338;2022-11-20T05:37:04;1.20;97.30
2763;DHT22;1389;51.490;7.338;2022-11-20T05:39:30;1.20;97.40
2763;DHT22;1389;51.490;7.338;2022-11-20T05:41:56;1.20;97.40
2763;DHT22;1389;51.490;7.338;2022-11-20T05:44:40;1.20;97.30
2763;DHT22;1389;51.490;7.338;2022-11-20T05:47:07;1.20;97.70
2763;DHT22;1389;51.490;7.338;2022-11-20T05:49:33;1.10;97.70
2763;DHT22;1389;51.490;7.338;2022-11-20T05:51:59;1.10;97.60
2763;DHT22;1389;51.490;7.338;2022-11-20T05:54:25;1.10;97.60
2763;DHT22;1389;51.490;7.338;2022-11-20T05:56:51;1.10;97.60
2763;DHT22;1389;51.490;7.338;2022-11-20T05:59:17;1.10;97.70
2763;DHT22;1389;51.490;7.338;2022-11-20T06:01:43;1.00;97.60
2763;DHT22;1389;51.490;7.338;2022-11-20T06:04:09;1.00;97.70
2763;DHT22;1389;51.490;7.338;2022-11-20T06:06:35;1.00;97.70
2763;DHT22;1389;51.490;7.338;2022-11-20T06:09:01;1.00;97.70
2763;DHT22;1389;51.490;7.338;2022-11-20T06:11:27;1.00;97.80
2763;DHT22;1389;51.490;7.338;2022-11-20T06:13:53;1.00;98.00
2763;DHT22;1389;51.490;7.338;2022-11-20T06:16:19;1.00;98.00
2763;DHT22;1389;51.490;7.338;2022-11-20T06:18:47;1.00;98.10
2763;DHT22;1389;51.490;7.338;2022-11-20T06:21:16;1.00;98.00
2763;DHT22;1389;51.490;7.338;2022-11-20T06:23:42;1.00;98.10
2763;DHT22;1389;51.490;7.338;2022-11-20T06:26:27;1.00;98.10
2763;DHT22;1389;51.490;7.338;2022-11-20T06:28:54;1.00;98.10
2763;DHT22;1389;51.490;7.338;2022-11-20T06:31:23;1.00;98.00
2763;DHT22;1389;51.490;7.338;2022-11-20T06:33:50;1.00;97.90
2763;DHT22;1389;51.490;7.338;2022-11-20T06:36:18;1.00;98.00
2763;DHT22;1389;51.490;7.338;2022-11-20T06:38:45;0.90;98.00
2763;DHT22;1389;51.490;7.338;2022-11-20T06:41:16;0.90;98.00
2763;DHT22;1389;51.490;7.338;2022-11-20T06:43:43;0.90;98.00
2763;DHT22;1389;51.490;7.338;2022-11-20T06:46:10;0.90;98.10
2763;DHT22;1389;51.490;7.338;2022-11-20T06:48:36;0.90;98.30
2763;DHT22;1389;51.490;7.338;2022-11-20T06:51:04;0.80;98.30
2763;DHT22;1389;51.490;7.338;2022-11-20T06:53:31;0.80;98.30
2763;DHT22;1389;51.490;7.338;2022-11-20T06:55:57;0.80;98.30
2763;DHT22;1389;51.490;7.338;2022-11-20T06:58:26;0.70;98.30
2763;DHT22;1389;51.490;7.338;2022-11-20T07:00:52;0.70;98.30
2763;DHT22;1389;51.490;7.338;2022-11-20T07:03:19;0.70;98.10
2763;DHT22;1389;51.490;7.338;2022-11-20T07:05:45;0.70;97.90
2763;DHT22;1389;51.490;7.338;2022-11-20T07:08:12;0.70;98.00
2763;DHT22;1389;51.490;7.338;2022-11-20T07:10:38;0.60;98.10
2763;DHT22;1389;51.490;7.338;2022-11-20T07:13:04;0.60;98.10
2763;DHT22;1389;51.490;7.338;2022-11-20T07:15:30;0.60;98.10
2763;DHT22;1389;51.490;7.338;2022-11-20T07:17:59;0.50;98.20
2763;DHT22;1389;51.490;7.338;2022-11-20T07:20:25;0.60;98.40
2763;DHT22;1389;51.490;7.338;2022-11-20T07:22:55;0.60;98.30
2763;DHT22;1389;51.490;7.338;2022-11-20T07:25:22;0.60;98.40
2763;DHT22;1389;51.490;7.338;2022-11-20T07:27:48;0.60;98.30
2763;DHT22;1389;51.490;7.338;2022-11-20T07:30:16;0.60;98.20
2763;DHT22;1389;51.490;7.338;2022-11-20T07:32:42;0.60;97.90
2763;DHT22;1389;51.490;7.338;2022-11-20T07:35:08;0.60;98.00
2763;DHT22;1389;51.490;7.338;2022-11-20T07:37:35;0.60;98.00
2763;DHT22;1389;51.490;7.338;2022-11-20T07:40:01;0.60;98.00
2763;DHT22;1389;51.490;7.338;2022-11-20T07:44:53;0.60;97.90
2763;DHT22;1389;51.490;7.338;2022-11-20T07:47:19;0.60;97.90
2763;DHT22;1389;51.490;7.338;2022-11-20T07:49:46;0.60;97.90
2763;DHT22;1389;51.490;7.338;2022-11-20T07:52:12;0.60;97.80
2763;DHT22;1389;51.490;7.338;2022-11-20T07:54:38;0.60;97.70
2763;DHT22;1389;51.490;7.338;2022-11-20T07:57:04;0.50;97.70
2763;DHT22;1389;51.490;7.338;2022-11-20T07:59:31;0.60;97.80
2763;DHT22;1389;51.490;7.338;2022-11-20T08:01:57;0.60;97.80
2763;DHT22;1389;51.490;7.338;2022-11-20T08:04:23;0.60;97.90
2763;DHT22;1389;51.490;7.338;2022-11-20T08:06:49;0.60;97.60
2763;DHT22;1389;51.490;7.338;2022-11-20T08:11:41;0.60;97.50
2763;DHT22;1389;51.490;7.338;2022-11-20T08:14:26;0.60;97.60
2763;DHT22;1389;51.490;7.338;2022-11-20T08:16:53;0.60;97.90
2763;DHT22;1389;51.490;7.338;2022-11-20T08:19:19;0.60;98.00
2763;DHT22;1389;51.490;7.338;2022-11-20T08:21:46;0.70;98.10
2763;DHT22;1389;51.490;7.338;2022-11-20T08:24:12;0.70;98.10
2763;DHT22;1389;51.490;7.338;2022-11-20T08:26:39;0.70;98.00
2763;DHT22;1389;51.490;7.338;2022-11-20T08:29:05;0.70;97.80
2763;DHT22;1389;51.490;7.338;2022-11-20T08:31:32;0.70;97.70
2763;DHT22;1389;51.490;7.338;2022-11-20T08:33:58;0.70;97.70
2763;DHT22;1389;51.490;7.338;2022-11-20T08:36:24;0.70;97.70
2763;DHT22;1389;51.490;7.338;2022-11-20T08:38:53;0.80;97.90
2763;DHT22;1389;51.490;7.338;2022-11-20T08:41:19;0.80;97.90
2763;DHT22;1389;51.490;7.338;2022-11-20T08:44:02;0.80;97.90
2763;DHT22;1389;51.490;7.338;2022-11-20T08:46:34;0.80;98.10
2763;DHT22;1389;51.490;7.338;2022-11-20T08:49:01;0.80;98.10
2763;DHT22;1389;51.490;7.338;2022-11-20T08:51:27;0.80;98.10
2763;DHT22;1389;51.490;7.338;2022-11-20T08:53:53;0.80;98.30
2763;DHT22;1389;51.490;7.338;2022-11-20T08:56:19;0.90;98.40
2763;DHT22;1389;51.490;7.338;2022-11-20T08:58:45;0.90;98.40
2763;DHT22;1389;51.490;7.338;2022-11-20T09:01:11;0.90;98.50
2763;DHT22;1389;51.490;7.338;2022-11-20T09:03:37;1.00;98.50
2763;DHT22;1389;51.490;7.338;2022-11-20T09:06:06;1.00;98.70
2763;DHT22;1389;51.490;7.338;2022-11-20T09:08:33;1.10;98.70
2763;DHT22;1389;51.490;7.338;2022-11-20T09:13:27;1.10;98.80
2763;DHT22;1389;51.490;7.338;2022-11-20T09:15:55;1.20;98.90
2763;DHT22;1389;51.490;7.338;2022-11-20T09:18:22;1.20;99.00
2763;DHT22;1389;51.490;7.338;2022-11-20T09:20:48;1.30;99.20
2763;DHT22;1389;51.490;7.338;2022-11-20T09:23:15;1.30;99.30
2763;DHT22;1389;51.490;7.338;2022-11-20T09:25:42;1.40;99.30
2763;DHT22;1389;51.490;7.338;2022-11-20T09:28:08;1.50;99.30
2763;DHT22;1389;51.490;7.338;2022-11-20T09:30:35;1.60;99.10
2763;DHT22;1389;51.490;7.338;2022-11-20T09:33:01;1.60;98.80
2763;DHT22;1389;51.490;7.338;2022-11-20T09:35:27;1.60;98.90
2763;DHT22;1389;51.490;7.338;2022-11-20T09:40:24;1.80;99.00
2763;DHT22;1389;51.490;7.338;2022-11-20T09:42:55;1.80;99.30
2763;DHT22;1389;51.490;7.338;2022-11-20T09:56:11;2.20;98.90
2763;DHT22;1389;51.490;7.338;2022-11-20T09:58:49;2.20;98.80
2763;DHT22;1389;51.490;7.338;2022-11-20T10:01:25;2.30;98.50
2763;DHT22;1389;51.490;7.338;2022-11-20T10:04:19;2.40;98.10
2763;DHT22;1389;51.490;7.338;2022-11-20T10:06:55;2.50;98.10
2763;DHT22;1389;51.490;7.338;2022-11-20T10:09:34;2.60;98.20
2763;DHT22;1389;51.490;7.338;2022-11-20T10:20:46;3.10;95.00
2763;DHT22;1389;51.490;7.338;2022-11-20T10:31:32;3.30;93.30
2763;DHT22;1389;51.490;7.338;2022-11-20T10:34:03;3.30;93.20
2763;DHT22;1389;51.490;7.338;2022-11-20T10:36:40;3.40;92.90
2763;DHT22;1389;51.490;7.338;2022-11-20T10:39:50;3.40;93.10
2763;DHT22;1389;51.490;7.338;2022-11-20T10:42:16;3.40;93.10
2763;DHT22;1389;51.490;7.338;2022-11-20T10:44:50;3.50;92.90
2763;DHT22;1389;51.490;7.338;2022-11-20T10:47:28;3.50;91.90
2763;DHT22;1389;51.490;7.338;2022-11-20T10:49:57;3.50;91.80
2763;DHT22;1389;51.490;7.338;2022-11-20T10:55:30;3.60;92.50
2763;DHT22;1389;51.490;7.338;2022-11-20T10:58:10;3.70;92.60
2763;DHT22;1389;51.490;7.338;2022-11-20T11:00:39;3.70;92.10
2763;DHT22;1389;51.490;7.338;2022-11-20T11:05:54;3.70;91.80
2763;DHT22;1389;51.490;7.338;2022-11-20T11:08:33;3.70;91.70
2763;DHT22;1389;51.490;7.338;2022-11-20T11:13:34;3.70;92.40
2763;DHT22;1389;51.490;7.338;2022-11-20T11:16:00;3.70;92.80
2763;DHT22;1389;51.490;7.338;2022-11-20T11:18:34;3.80;93.00
2763;DHT22;1389;51.490;7.338;2022-11-20T11:21:04;3.80;93.10
2763;DHT22;1389;51.490;7.338;2022-11-20T11:23:41;3.90;93.20
2763;DHT22;1389;51.490;7.338;2022-11-20T11:26:23;3.90;93.00
2763;DHT22;1389;51.490;7.338;2022-11-20T11:31:31;4.00;93.30
2763;DHT22;1389;51.490;7.338;2022-11-20T11:34:06;4.00;93.40
2763;DHT22;1389;51.490;7.338;2022-11-20T11:36:34;4.00;93.30
2763;DHT22;1389;51.490;7.338;2022-11-20T11:39:02;4.10;93.50
2763;DHT22;1389;51.490;7.338;2022-11-20T11:41:32;4.10;93.40
2763;DHT22;1389;51.490;7.338;2022-11-20T11:44:33;4.10;93.40
2763;DHT22;1389;51.490;7.338;2022-11-20T11:47:25;4.20;93.10
2763;DHT22;1389;51.490;7.338;2022-11-20T11:57:49;4.30;92.50
2763;DHT22;1389;51.490;7.338;2022-11-20T12:00:20;4.40;92.60
2763;DHT22;1389;51.490;7.338;2022-11-20T12:05:24;4.40;91.80
2763;DHT22;1389;51.490;7.338;2022-11-20T12:08:12;4.50;91.90
2763;DHT22;1389;51.490;7.338;2022-11-20T12:14:13;4.60;91.50
2763;DHT22;1389;51.490;7.338;2022-11-20T12:16:40;4.70;91.20
2763;DHT22;1389;51.490;7.338;2022-11-20T12:19:12;4.60;90.90
2763;DHT22;1389;51.490;7.338;2022-11-20T12:22:00;4.60;90.80
2763;DHT22;1389;51.490;7.338;2022-11-20T12:36:19;4.50;91.90
2763;DHT22;1389;51.490;7.338;2022-11-20T12:41:43;4.50;91.90
2763;DHT22;1389;51.490;7.338;2022-11-20T12:44:33;4.50;91.90
2763;DHT22;1389;51.490;7.338;2022-11-20T12:53:25;4.50;92.10
2763;DHT22;1389;51.490;7.338;2022-11-20T12:55:49;4.50;92.20
2763;DHT22;1389;51.490;7.338;2022-11-20T13:01:22;4.50;92.60
2763;DHT22;1389;51.490;7.338;2022-11-20T13:07:12;4.40;93.00
2763;DHT22;1389;51.490;7.338;2022-11-20T13:09:49;4.40;93.20
2763;DHT22;1389;51.490;7.338;2022-11-20T13:12:40;4.40;93.30
2763;DHT22;1389;51.490;7.338;2022-11-20T13:15:32;4.40;93.40
2763;DHT22;1389;51.490;7.338;2022-11-20T13:18:01;4.40;93.40
2763;DHT22;1389;51.490;7.338;2022-11-20T13:20:30;4.40;93.30
2763;DHT22;1389;51.490;7.338;2022-11-20T13:22:57;4.40;93.20
2763;DHT22;1389;51.490;7.338;2022-11-20T13:25:25;4.40;93.30
2763;DHT22;1389;51.490;7.338;2022-11-20T13:27:53;4.40;93.10
2763;DHT22;1389;51.490;7.338;2022-11-20T13:30:22;4.40;93.00
2763;DHT22;1389;51.490;7.338;2022-11-20T13:33:06;4.40;92.80
2763;DHT22;1389;51.490;7.338;2022-11-20T13:35:35;4.40;92.70
2763;DHT22;1389;51.490;7.338;2022-11-20T13:38:21;4.40;92.80
2763;DHT22;1389;51.490;7.338;2022-11-20T13:41:00;4.50;92.70
2763;DHT22;1389;51.490;7.338;2022-11-20T13:43:51;4.50;92.50
2763;DHT22;1389;51.490;7.338;2022-11-20T13:46:22;4.50;92.70
2763;DHT22;1389;51.490;7.338;2022-11-20T13:48:51;4.50;92.70
2763;DHT22;1389;51.490;7.338;2022-11-20T13:51:42;4.50;92.10
2763;DHT22;1389;51.490;7.338;2022-11-20T13:57:17;4.50;92.00
2763;DHT22;1389;51.490;7.338;2022-11-20T14:00:13;4.50;92.30
2763;DHT22;1389;51.490;7.338;2022-11-20T14:02:41;4.50;92.40
2763;DHT22;1389;51.490;7.338;2022-11-20T14:05:21;4.50;92.80
2763;DHT22;1389;51.490;7.338;2022-11-20T14:07:51;4.50;92.90
2763;DHT22;1389;51.490;7.338;2022-11-20T14:10:27;4.50;92.80
2763;DHT22;1389;51.490;7.338;2022-11-20T14:12:53;4.50;93.00
2763;DHT22;1389;51.490;7.338;2022-11-20T14:15:29;4.50;92.30
2763;DHT22;1389;51.490;7.338;2022-11-20T14:17:57;4.50;92.50
2763;DHT22;1389;51.490;7.338;2022-11-20T14:20:28;4.50;92.60
2763;DHT22;1389;51.490;7.338;2022-11-20T14:22:55;4.50;92.40
2763;DHT22;1389;51.490;7.338;2022-11-20T14:25:23;4.50;92.40
2763;DHT22;1389;51.490;7.338;2022-11-20T14:28:00;4.50;92.60
2763;DHT22;1389;51.490;7.338;2022-11-20T14:33:11;4.50;92.60
2763;DHT22;1389;51.490;7.338;2022-11-20T14:35:44;4.50;92.90
2763;DHT22;1389;51.490;7.338;2022-11-20T14:38:18;4.50;93.10
2763;DHT22;1389;51.490;7.338;2022-11-20T14:40:45;4.50;93.30
2763;DHT22;1389;51.490;7.338;2022-11-20T14:43:26;4.50;93.70
2763;DHT22;1389;51.490;7.338;2022-11-20T14:46:02;4.50;93.90
2763;DHT22;1389;51.490;7.338;2022-11-20T14:48:45;4.50;93.60
2763;DHT22;1389;51.490;7.338;2022-11-20T14:51:32;4.50;93.80
2763;DHT22;1389;51.490;7.338;2022-11-20T14:54:16;4.50;93.90
2763;DHT22;1389;51.490;7.338;2022-11-20T14:56:56;4.50;93.90
2763;DHT22;1389;51.490;7.338;2022-11-20T14:59:33;4.50;93.80
2763;DHT22;1389;51.490;7.338;2022-11-20T15:02:11;4.50;93.80
2763;DHT22;1389;51.490;7.338;2022-11-20T15:04:56;4.50;93.90
2763;DHT22;1389;51.490;7.338;2022-11-20T15:07:32;4.50;94.40
2763;DHT22;1389;51.490;7.338;2022-11-20T15:10:06;4.50;94.70
2763;DHT22;1389;51.490;7.338;2022-11-20T15:12:37;4.50;94.80
2763;DHT22;1389;51.490;7.338;2022-11-20T15:15:05;4.50;95.00
2763;DHT22;1389;51.490;7.338;2022-11-20T15:17:35;4.50;95.20
2763;DHT22;1389;51.490;7.338;2022-11-20T15:20:12;4.50;95.50
2763;DHT22;1389;51.490;7.338;2022-11-20T15:22:43;4.50;95.70
2763;DHT22;1389;51.490;7.338;2022-11-20T15:25:17;4.50;95.90
2763;DHT22;1389;51.490;7.338;2022-11-20T15:27:44;4.40;96.10
2763;DHT22;1389;51.490;7.338;2022-11-20T15:30:18;4.40;96.20
2763;DHT22;1389;51.490;7.338;2022-11-20T15:32:46;4.40;96.50
2763;DHT22;1389;51.490;7.338;2022-11-20T15:35:15;4.40;96.50
2763;DHT22;1389;51.490;7.338;2022-11-20T15:37:42;4.40;96.50
2763;DHT22;1389;51.490;7.338;2022-11-20T15:40:19;4.40;96.50
2763;DHT22;1389;51.490;7.338;2022-11-20T15:42:47;4.40;96.80
2763;DHT22;1389;51.490;7.338;2022-11-20T15:45:48;4.40;97.00
2763;DHT22;1389;51.490;7.338;2022-11-20T15:48:22;4.40;97.10
2763;DHT22;1389;51.490;7.338;2022-11-20T15:53:37;4.50;97.40
2763;DHT22;1389;51.490;7.338;2022-11-20T15:56:04;4.40;97.30
2763;DHT22;1389;51.490;7.338;2022-11-20T15:58:30;4.40;97.30
2763;DHT22;1389;51.490;7.338;2022-11-20T16:03:25;4.40;97.40
2763;DHT22;1389;51.490;7.338;2022-11-20T16:05:55;4.30;97.50
2763;DHT22;1389;51.490;7.338;2022-11-20T16:08:21;4.30;97.70
2763;DHT22;1389;51.490;7.338;2022-11-20T16:10:48;4.30;98.30
2763;DHT22;1389;51.490;7.338;2022-11-20T16:13:17;4.30;98.30
2763;DHT22;1389;51.490;7.338;2022-11-20T16:16:06;4.30;98.60
2763;DHT22;1389;51.490;7.338;2022-11-20T16:18:35;4.30;98.80
2763;DHT22;1389;51.490;7.338;2022-11-20T16:21:03;4.30;98.90
2763;DHT22;1389;51.490;7.338;2022-11-20T16:23:36;4.40;99.10
2763;DHT22;1389;51.490;7.338;2022-11-20T16:26:12;4.40;99.00
2763;DHT22;1389;51.490;7.338;2022-11-20T16:28:41;4.40;99.10
2763;DHT22;1389;51.490;7.338;2022-11-20T16:31:14;4.40;99.10
2763;DHT22;1389;51.490;7.338;2022-11-20T16:33:42;4.40;99.10
2763;DHT22;1389;51.490;7.338;2022-11-20T16:36:12;4.30;99.20
2763;DHT22;1389;51.490;7.338;2022-11-20T16:38:40;4.30;99.00
2763;DHT22;1389;51.490;7.338;2022-11-20T16:41:08;4.30;99.20
2763;DHT22;1389;51.490;7.338;2022-11-20T16:43:49;4.20;99.20
2763;DHT22;1389;51.490;7.338;2022-11-20T16:46:18;4.20;99.30
2763;DHT22;1389;51.490;7.338;2022-11-20T16:48:51;4.20;99.30
2763;DHT22;1389;51.490;7.338;2022-11-20T16:51:17;4.20;99.30
2763;DHT22;1389;51.490;7.338;2022-11-20T16:53:43;4.20;99.30
2763;DHT22;1389;51.490;7.338;2022-11-20T16:56:10;4.10;99.30
2763;DHT22;1389;51.490;7.338;2022-11-20T17:01:07;4.10;99.30
2763;DHT22;1389;51.490;7.338;2022-11-20T17:03:39;4.10;99.30
2763;DHT22;1389;51.490;7.338;2022-11-20T17:06:27;4.10;99.30
2763;DHT22;1389;51.490;7.338;2022-11-20T17:08:55;4.10;99.30
2763;DHT22;1389;51.490;7.338;2022-11-20T17:11:22;4.10;99.30
2763;DHT22;1389;51.490;7.338;2022-11-20T17:13:48;4.00;99.30
2763;DHT22;1389;51.490;7.338;2022-11-20T17:16:17;4.00;99.30
2763;DHT22;1389;51.490;7.338;2022-11-20T17:18:43;4.00;99.30
2763;DHT22;1389;51.490;7.338;2022-11-20T17:21:10;4.00;99.30
2763;DHT22;1389;51.490;7.338;2022-11-20T17:23:39;4.00;99.30
2763;DHT22;1389;51.490;7.338;2022-11-20T17:26:08;4.00;99.30
2763;DHT22;1389;51.490;7.338;2022-11-20T17:28:35;4.10;99.30
2763;DHT22;1389;51.490;7.338;2022-11-20T17:31:03;4.00;99.30
2763;DHT22;1389;51.490;7.338;2022-11-20T17:33:30;4.00;99.30
2763;DHT22;1389;51.490;7.338;2022-11-20T17:35:57;4.10;99.30
2763;DHT22;1389;51.490;7.338;2022-11-20T17:38:23;4.00;99.30
2763;DHT22;1389;51.490;7.338;2022-11-20T17:40:49;4.10;99.30
2763;DHT22;1389;51.490;7.338;2022-11-20T17:43:15;4.10;99.30
2763;DHT22;1389;51.490;7.338;2022-11-20T17:45:42;4.10;99.30
2763;DHT22;1389;51.490;7.338;2022-11-20T17:50:35;4.10;99.30
2763;DHT22;1389;51.490;7.338;2022-11-20T17:53:01;4.10;99.30
2763;DHT22;1389;51.490;7.338;2022-11-20T17:55:27;4.10;99.30
2763;DHT22;1389;51.490;7.338;2022-11-20T17:58:14;4.10;99.30
2763;DHT22;1389;51.490;7.338;2022-11-20T18:00:41;4.10;99.30
2763;DHT22;1389;51.490;7.338;2022-11-20T18:03:07;4.10;99.30
2763;DHT22;1389;51.490;7.338;2022-11-20T18:05:33;4.10;99.30
2763;DHT22;1389;51.490;7.338;2022-11-20T18:10:28;4.10;99.30
2763;DHT22;1389;51.490;7.338;2022-11-20T18:12:55;4.10;99.30
2763;DHT22;1389;51.490;7.338;2022-11-20T18:15:22;4.20;99.30
2763;DHT22;1389;51.490;7.338;2022-11-20T18:17:48;4.20;99.30
2763;DHT22;1389;51.490;7.338;2022-11-20T18:20:16;4.20;99.30
2763;DHT22;1389;51.490;7.338;2022-11-20T18:22:42;4.30;99.30
2763;DHT22;1389;51.490;7.338;2022-11-20T18:25:08;4.30;99.30
2763;DHT22;1389;51.490;7.338;2022-11-20T18:27:35;4.30;99.30